Time;durP1;ratioP1;P1;durP2;ratioP2;P2;SDS_P1;SDS_P2;PMS_P1;PMS_P2;Temp;Humidity;BMP_temperature;BMP_pressure;BME280_temperature;BME280_humidity;BME280_pressure;Samples;Min_cycle;Max_cycle;Signal;HPM_P1;HPM_P2
2023/11/18 00:01:54;;;;;;;13.10;10.00;;;8.20;99.90;;;;;;5050161;28;20502;-74
2023/11/18 00:04:40;;;;;;;13.73;9.17;;;8.10;99.90;;;;;;5058932;28;20447;-74
2023/11/18 00:07:25;;;;;;;15.13;10.27;;;8.10;99.90;;;;;;5063548;28;20443;-75
2023/11/18 00:10:12;;;;;;;11.50;9.73;;;8.10;99.90;;;;;;5063914;28;20452;-74
2023/11/18 00:12:57;;;;;;;15.57;9.97;;;8.10;99.90;;;;;;5058363;28;20526;-74
2023/11/18 00:15:45;;;;;;;11.10;8.70;;;8.10;99.90;;;;;;5049154;28;20439;-74
2023/11/18 00:18:32;;;;;;;13.33;10.60;;;8.00;99.90;;;;;;5055597;28;20810;-74
2023/11/18 00:21:18;;;;;;;22.53;11.20;;;7.90;99.90;;;;;;5059189;28;20451;-74
2023/11/18 00:24:04;;;;;;;15.03;10.80;;;7.90;99.90;;;;;;5063746;28;20443;-74
2023/11/18 00:26:50;;;;;;;14.90;11.00;;;7.80;99.90;;;;;;5062057;28;20455;-74
2023/11/18 00:29:38;;;;;;;15.40;9.83;;;7.80;99.90;;;;;;5048890;28;20587;-75
2023/11/18 00:32:23;;;;;;;18.50;10.83;;;7.80;99.90;;;;;;5057773;28;21001;-74
2023/11/18 00:35:11;;;;;;;14.43;10.53;;;7.90;99.90;;;;;;5063436;28;20435;-75
2023/11/18 00:37:56;;;;;;;15.03;10.03;;;7.90;99.90;;;;;;5057993;28;20842;-74
2023/11/18 00:40:42;;;;;;;12.40;9.77;;;7.90;99.90;;;;;;5055438;28;20445;-74
2023/11/18 00:43:28;;;;;;;12.90;10.13;;;7.90;99.90;;;;;;5054937;28;20418;-75
2023/11/18 00:46:14;;;;;;;16.40;11.07;;;7.80;99.90;;;;;;5060967;28;20419;-74
2023/11/18 00:48:59;;;;;;;12.37;10.07;;;7.80;99.90;;;;;;5061337;28;20470;-74
2023/11/18 00:51:46;;;;;;;15.80;10.33;;;7.70;99.90;;;;;;5056364;28;20942;-74
2023/11/18 00:54:32;;;;;;;11.03;9.87;;;7.70;99.90;;;;;;5047346;28;20452;-74
2023/11/18 00:57:18;;;;;;;15.10;11.63;;;7.80;99.90;;;;;;5054625;28;20466;-74
2023/11/18 01:00:04;;;;;;;14.30;11.10;;;7.70;99.90;;;;;;5059184;28;20457;-74
2023/11/18 01:02:50;;;;;;;15.83;11.90;;;7.70;99.90;;;;;;5053489;28;20440;-74
2023/11/18 01:05:37;;;;;;;16.73;10.73;;;7.70;99.90;;;;;;5050668;28;20531;-74
2023/11/18 01:08:24;;;;;;;12.97;10.73;;;7.70;99.90;;;;;;5051408;28;20458;-74
2023/11/18 01:11:10;;;;;;;18.43;11.63;;;7.70;99.90;;;;;;5055033;28;20448;-75
2023/11/18 01:13:56;;;;;;;14.73;11.50;;;7.60;99.90;;;;;;5040819;28;20456;-74
2023/11/18 01:16:41;;;;;;;14.60;11.80;;;7.70;99.90;;;;;;5048855;28;20840;-74
2023/11/18 01:19:28;;;;;;;15.93;11.00;;;7.60;99.90;;;;;;5044216;28;20479;-75
2023/11/18 01:22:13;;;;;;;14.75;11.35;;;7.60;99.90;;;;;;5051342;28;20455;-74
2023/11/18 01:25:00;;;;;;;16.23;11.95;;;7.60;99.90;;;;;;5050133;28;20198;-74
2023/11/18 01:27:47;;;;;;;15.93;11.88;;;7.60;99.90;;;;;;5048700;28;20226;-75
2023/11/18 01:30:33;;;;;;;13.85;10.90;;;7.50;99.90;;;;;;5047829;28;20245;-74
2023/11/18 01:33:19;;;;;;;16.23;11.30;;;7.50;99.90;;;;;;5049702;28;20346;-74
2023/11/18 01:36:05;;;;;;;15.17;11.20;;;7.50;99.90;;;;;;5048805;28;20464;-74
2023/11/18 01:38:51;;;;;;;15.93;11.03;;;7.50;99.90;;;;;;5050405;28;20615;-74
2023/11/18 01:41:38;;;;;;;17.67;12.37;;;7.40;99.90;;;;;;5050786;28;20851;-74
2023/11/18 01:44:24;;;;;;;16.53;12.50;;;7.40;99.90;;;;;;5051219;28;20498;-74
2023/11/18 01:47:12;;;;;;;18.23;12.40;;;7.40;99.90;;;;;;5052078;28;20533;-74
2023/11/18 01:49:59;;;;;;;17.77;12.37;;;7.30;99.90;;;;;;5049695;28;20822;-74
2023/11/18 01:52:47;;;;;;;16.83;12.30;;;7.30;99.90;;;;;;5046398;28;20448;-74
2023/11/18 01:55:34;;;;;;;14.43;11.90;;;7.40;99.90;;;;;;5052379;28;20423;-74
2023/11/18 01:58:23;;;;;;;21.93;11.43;;;7.30;99.90;;;;;;5050689;28;20476;-74
2023/11/18 02:01:10;;;;;;;16.63;11.23;;;7.30;99.90;;;;;;5050867;28;20448;-74
2023/11/18 02:03:56;;;;;;;19.27;13.10;;;7.30;99.90;;;;;;5050195;28;20455;-74
2023/11/18 02:06:41;;;;;;;55.50;13.02;;;7.30;99.90;;;;;;5050535;28;20522;-74
2023/11/18 02:09:28;;;;;;;20.52;14.00;;;7.20;99.90;;;;;;5042828;28;20285;-74
2023/11/18 02:12:22;;;;;;;14.75;11.30;;;7.10;99.90;;;;;;5043848;28;20208;-74
2023/11/18 02:15:12;;;;;;;15.50;9.93;;;7.20;99.90;;;;;;5050738;28;20206;-73
2023/11/18 02:17:58;;;;;;;17.23;11.98;;;7.00;99.90;;;;;;5050292;28;20514;-74
2023/11/18 02:20:45;;;;;;;14.63;10.90;;;6.90;99.90;;;;;;5048425;28;20570;-74
2023/11/18 02:23:31;;;;;;;15.43;10.80;;;6.90;99.90;;;;;;5046407;28;20336;-75
2023/11/18 02:26:23;;;;;;;14.45;11.38;;;6.80;99.90;;;;;;5056614;28;20452;-74
2023/11/18 02:29:09;;;;;;;18.42;13.30;;;6.60;99.90;;;;;;5047705;28;20221;-75
2023/11/18 02:32:01;;;;;;;17.17;10.85;;;6.40;99.90;;;;;;5045793;28;20201;-75
2023/11/18 02:34:53;;;;;;;15.70;12.50;;;6.30;99.90;;;;;;5047918;28;20201;-74
2023/11/18 02:37:43;;;;;;;17.05;12.48;;;6.20;99.90;;;;;;5052753;28;20298;-75
2023/11/18 02:40:33;;;;;;;17.73;10.47;;;6.20;99.90;;;;;;5051435;28;20700;-75
2023/11/18 02:43:21;;;;;;;13.80;10.80;;;6.10;99.90;;;;;;5056489;28;20910;-75
2023/11/18 02:46:08;;;;;;;14.30;10.88;;;6.00;99.90;;;;;;5048380;28;20469;-75
2023/11/18 02:48:55;;;;;;;19.77;11.23;;;6.00;99.90;;;;;;5049687;28;20237;-75
2023/11/18 02:51:41;;;;;;;18.10;12.32;;;6.10;99.90;;;;;;5044666;28;20202;-74
2023/11/18 02:54:26;;;;;;;16.93;10.83;;;6.00;99.90;;;;;;5042755;28;20213;-75
2023/11/18 02:57:13;;;;;;;13.90;10.53;;;6.00;99.90;;;;;;5049934;28;20931;-75
2023/11/18 03:00:01;;;;;;;17.70;11.70;;;5.90;99.90;;;;;;5052539;28;20803;-75
2023/11/18 03:02:48;;;;;;;13.82;11.68;;;5.90;99.90;;;;;;5051488;28;20688;-75
2023/11/18 03:05:33;;;;;;;19.27;11.15;;;5.90;99.90;;;;;;5058516;28;20413;-73
2023/11/18 03:08:19;;;;;;;15.35;11.07;;;5.80;99.90;;;;;;5061432;28;20241;-75
2023/11/18 03:11:08;;;;;;;13.70;9.93;;;5.80;99.90;;;;;;5055638;28;20285;-74
2023/11/18 03:13:54;;;;;;;17.73;11.50;;;5.70;99.90;;;;;;5054607;28;20945;-75
2023/11/18 03:16:41;;;;;;;21.05;9.85;;;5.60;99.90;;;;;;5055408;28;20244;-75
2023/11/18 03:19:27;;;;;;;18.33;11.23;;;5.70;99.90;;;;;;5051525;28;20462;-76
2023/11/18 03:22:13;;;;;;;15.48;11.88;;;5.70;99.90;;;;;;5055571;28;20283;-73
2023/11/18 03:24:59;;;;;;;13.48;9.75;;;5.60;99.90;;;;;;5057818;28;20691;-73
2023/11/18 03:27:45;;;;;;;13.55;10.38;;;5.60;99.90;;;;;;5053895;28;20416;-75
2023/11/18 03:30:31;;;;;;;13.07;10.50;;;5.60;99.90;;;;;;5057303;28;20205;-75
2023/11/18 03:33:18;;;;;;;14.80;11.15;;;5.50;99.90;;;;;;5062343;28;20221;-75
2023/11/18 03:36:05;;;;;;;15.20;10.93;;;5.40;99.90;;;;;;5057031;28;20220;-74
2023/11/18 03:38:50;;;;;;;16.27;11.00;;;5.50;99.90;;;;;;5055724;28;20225;-75
2023/11/18 03:41:37;;;;;;;22.50;11.75;;;5.50;99.90;;;;;;5054296;28;20209;-75
2023/11/18 03:44:23;;;;;;;16.85;11.13;;;5.40;99.90;;;;;;5059763;28;20255;-75
2023/11/18 03:47:10;;;;;;;18.63;11.90;;;5.40;99.90;;;;;;5060700;28;20217;-75
2023/11/18 03:49:57;;;;;;;30.77;12.90;;;5.30;99.90;;;;;;5057632;28;20205;-75
2023/11/18 03:52:42;;;;;;;17.60;13.40;;;5.30;99.90;;;;;;5048426;28;20204;-74
2023/11/18 03:55:29;;;;;;;19.55;12.23;;;5.30;99.90;;;;;;5058288;28;20220;-74
2023/11/18 03:58:14;;;;;;;20.60;13.18;;;5.40;99.90;;;;;;5054602;28;20233;-75
2023/11/18 04:01:01;;;;;;;29.13;13.60;;;5.50;99.90;;;;;;5060229;28;20688;-75
2023/11/18 04:03:47;;;;;;;19.13;13.80;;;5.40;99.90;;;;;;5054945;28;20268;-75
2023/11/18 04:06:34;;;;;;;24.35;12.55;;;5.40;99.90;;;;;;5053533;28;20281;-75
2023/11/18 04:09:19;;;;;;;21.35;12.13;;;5.30;99.90;;;;;;5055566;28;20224;-75
2023/11/18 04:12:05;;;;;;;17.80;12.07;;;5.30;99.90;;;;;;5060593;28;20596;-75
2023/11/18 04:14:51;;;;;;;19.65;12.85;;;5.40;99.90;;;;;;5051570;28;20313;-74
2023/11/18 04:17:37;;;;;;;25.17;14.25;;;5.40;99.90;;;;;;5055202;28;20360;-75
2023/11/18 04:20:23;;;;;;;22.52;13.98;;;5.60;99.90;;;;;;5067936;28;20251;-73
2023/11/18 04:23:11;;;;;;;27.85;15.35;;;5.60;99.90;;;;;;5080512;28;20213;-73
2023/11/18 04:25:57;;;;;;;19.27;13.30;;;5.70;99.90;;;;;;5075224;28;20213;-73
2023/11/18 04:28:43;;;;;;;19.90;13.75;;;5.60;99.90;;;;;;5069926;28;20274;-73
2023/11/18 04:31:29;;;;;;;24.40;14.07;;;5.60;99.90;;;;;;5065734;28;20483;-75
2023/11/18 04:34:16;;;;;;;28.70;14.10;;;5.50;99.90;;;;;;5066809;28;20208;-75
2023/11/18 04:37:02;;;;;;;21.33;15.20;;;5.40;99.90;;;;;;5065675;28;20201;-75
2023/11/18 04:39:49;;;;;;;28.63;15.48;;;5.40;99.90;;;;;;5059874;28;20682;-75
2023/11/18 04:42:34;;;;;;;24.73;15.73;;;5.40;99.90;;;;;;5055508;28;20208;-75
2023/11/18 04:45:20;;;;;;;19.67;14.63;;;5.40;99.90;;;;;;5056017;28;20247;-75
2023/11/18 04:48:06;;;;;;;18.75;14.55;;;5.40;99.90;;;;;;5061599;28;20225;-74
2023/11/18 04:50:52;;;;;;;33.58;16.38;;;5.40;99.90;;;;;;5045756;28;20201;-73
2023/11/18 04:53:39;;;;;;;20.08;14.38;;;5.40;99.90;;;;;;5045854;28;20692;-74
2023/11/18 04:56:26;;;;;;;20.00;15.25;;;5.40;99.90;;;;;;5045327;28;20281;-75
2023/11/18 04:59:11;;;;;;;28.90;15.45;;;5.60;99.90;;;;;;5041486;28;20229;-74
2023/11/18 05:01:57;;;;;;;22.55;15.52;;;5.70;99.90;;;;;;5041739;28;20268;-75
2023/11/18 05:04:43;;;;;;;20.13;14.25;;;5.70;99.90;;;;;;5041609;28;20316;-73
2023/11/18 05:07:29;;;;;;;20.13;14.00;;;5.80;99.90;;;;;;5042854;28;20281;-74
2023/11/18 05:10:14;;;;;;;22.42;16.48;;;5.80;99.90;;;;;;5041560;28;20972;-74
2023/11/18 05:13:01;;;;;;;22.77;16.80;;;5.90;99.90;;;;;;5038480;28;20225;-74
2023/11/18 05:15:49;;;;;;;39.28;16.85;;;6.00;99.90;;;;;;5054746;28;20687;-73
2023/11/18 05:18:36;;;;;;;24.20;15.13;;;5.90;99.90;;;;;;5063580;28;20271;-75
2023/11/18 05:21:22;;;;;;;23.15;14.90;;;6.00;99.90;;;;;;5063821;28;20588;-74
2023/11/18 05:24:08;;;;;;;40.30;14.82;;;6.00;99.90;;;;;;5056723;28;20495;-74
2023/11/18 05:26:53;;;;;;;78.00;14.35;;;6.00;99.90;;;;;;5058260;28;20208;-73
2023/11/18 05:29:45;;;;;;;23.35;13.98;;;5.90;99.90;;;;;;5048727;28;20283;-77
2023/11/18 05:32:33;;;;;;;26.23;14.43;;;5.80;99.90;;;;;;5055446;28;20620;-73
2023/11/18 05:35:18;;;;;;;18.80;14.18;;;5.80;99.90;;;;;;5066628;28;20205;-72
2023/11/18 05:38:05;;;;;;;27.20;14.95;;;5.80;99.90;;;;;;5065162;28;20750;-73
2023/11/18 05:40:55;;;;;;;19.65;14.10;;;5.90;99.90;;;;;;5057037;28;20205;-73
2023/11/18 05:43:41;;;;;;;31.70;14.50;;;6.00;99.90;;;;;;5057842;28;20264;-73
2023/11/18 05:46:29;;;;;;;19.38;13.15;;;6.10;99.90;;;;;;5060397;28;20208;-73
2023/11/18 05:49:15;;;;;;;16.48;12.70;;;6.10;99.90;;;;;;5054702;28;20221;-74
2023/11/18 05:52:00;;;;;;;18.77;13.82;;;6.20;99.90;;;;;;5055061;28;20254;-74
2023/11/18 05:54:47;;;;;;;23.42;13.15;;;6.20;99.90;;;;;;5056900;28;20336;-74
2023/11/18 05:57:33;;;;;;;34.42;13.82;;;6.20;99.90;;;;;;5069745;28;20266;-73
2023/11/18 06:00:21;;;;;;;46.03;13.10;;;6.10;99.90;;;;;;5058115;28;20699;-72
2023/11/18 06:03:07;;;;;;;64.13;13.00;;;6.10;99.90;;;;;;5066427;28;20284;-73
2023/11/18 06:08:28;;;;;;;69.85;13.10;;;6.10;99.90;;;;;;5356288;22;20274;-72
2023/11/18 06:11:15;;;;;;;27.73;15.10;;;6.10;99.90;;;;;;5052506;28;20742;-73
2023/11/18 06:14:01;;;;;;;58.00;14.93;;;6.00;99.90;;;;;;5052995;28;20209;-73
2023/11/18 06:16:50;;;;;;;18.98;13.85;;;6.00;99.90;;;;;;5055663;28;20606;-73
2023/11/18 06:19:37;;;;;;;53.13;13.82;;;6.00;99.90;;;;;;5041197;28;20220;-73
2023/11/18 06:22:22;;;;;;;81.78;14.00;;;6.00;99.90;;;;;;5033436;28;20340;-73
2023/11/18 06:25:09;;;;;;;22.95;13.15;;;6.00;99.90;;;;;;5021444;28;20510;-73
2023/11/18 06:27:55;;;;;;;42.28;13.07;;;6.00;99.90;;;;;;5031113;28;20225;-73
2023/11/18 06:30:41;;;;;;;21.98;14.93;;;6.00;99.90;;;;;;5020338;28;20704;-73
2023/11/18 06:33:27;;;;;;;20.00;14.77;;;5.90;99.90;;;;;;5035982;28;20676;-73
2023/11/18 06:36:20;;;;;;;19.40;14.13;;;5.90;99.90;;;;;;5037722;28;20438;-73
2023/11/18 06:39:06;;;;;;;34.83;14.43;;;5.90;99.90;;;;;;5037918;28;20233;-73
2023/11/18 06:41:53;;;;;;;19.58;14.05;;;6.00;99.90;;;;;;5020850;28;20258;-73
2023/11/18 06:44:39;;;;;;;18.63;14.20;;;6.00;99.90;;;;;;5038120;28;20264;-73
2023/11/18 06:47:24;;;;;;;23.33;15.55;;;6.10;99.90;;;;;;5036343;28;20291;-73
2023/11/18 06:50:14;;;;;;;19.70;14.73;;;6.00;99.90;;;;;;5038577;28;20205;-73
2023/11/18 06:53:00;;;;;;;20.27;13.23;;;6.00;99.90;;;;;;5035080;28;20702;-73
2023/11/18 06:55:46;;;;;;;17.42;11.95;;;6.00;99.90;;;;;;5034116;28;20205;-73
2023/11/18 06:58:32;;;;;;;16.70;12.98;;;5.90;99.90;;;;;;5037592;28;20228;-73
2023/11/18 07:01:18;;;;;;;19.50;14.70;;;5.90;99.90;;;;;;5035623;28;20688;-72
2023/11/18 07:04:08;;;;;;;26.67;15.20;;;6.00;99.90;;;;;;5034927;28;20636;-73
2023/11/18 07:06:54;;;;;;;19.93;13.67;;;6.10;99.90;;;;;;5039144;28;20695;-73
2023/11/18 07:09:41;;;;;;;20.90;15.50;;;6.20;99.90;;;;;;5032015;28;20507;-73
2023/11/18 07:12:26;;;;;;;21.50;15.43;;;6.30;99.90;;;;;;5032259;28;20585;-73
2023/11/18 07:15:12;;;;;;;22.55;15.18;;;6.30;99.90;;;;;;5047889;28;20204;-73
2023/11/18 07:17:58;;;;;;;18.80;13.80;;;6.40;99.90;;;;;;5044072;28;20226;-73
2023/11/18 07:20:44;;;;;;;16.45;12.85;;;6.40;99.90;;;;;;5045626;28;20431;-73
2023/11/18 07:23:29;;;;;;;18.52;13.93;;;6.50;99.90;;;;;;5044647;28;20205;-73
2023/11/18 07:26:16;;;;;;;20.10;14.00;;;6.60;99.90;;;;;;5045068;28;20209;-73
2023/11/18 07:29:02;;;;;;;22.95;14.85;;;6.60;99.90;;;;;;5044574;28;20229;-73
2023/11/18 07:31:49;;;;;;;18.17;13.40;;;6.70;99.90;;;;;;5042917;28;20260;-73
2023/11/18 07:34:35;;;;;;;19.70;13.73;;;6.70;99.90;;;;;;5045847;28;20432;-73
2023/11/18 07:37:21;;;;;;;16.00;12.40;;;6.60;99.90;;;;;;5031305;28;20499;-74
2023/11/18 07:40:11;;;;;;;16.45;12.90;;;6.40;99.90;;;;;;5027988;28;20524;-73
2023/11/18 07:43:01;;;;;;;17.65;12.45;;;6.40;99.90;;;;;;5018913;28;20234;-74
2023/11/18 07:45:49;;;;;;;16.88;12.50;;;6.40;99.90;;;;;;5026707;28;20210;-74
2023/11/18 07:48:35;;;;;;;14.68;11.70;;;6.50;99.90;;;;;;5036616;28;20303;-74
2023/11/18 07:51:21;;;;;;;19.45;14.20;;;6.70;99.90;;;;;;5032607;28;20200;-73
2023/11/18 07:54:07;;;;;;;18.77;12.68;;;6.80;99.90;;;;;;5040556;28;20214;-74
2023/11/18 07:56:53;;;;;;;16.40;12.83;;;6.80;99.90;;;;;;5040324;28;20278;-75
2023/11/18 07:59:40;;;;;;;18.33;12.88;;;6.90;99.90;;;;;;5040214;28;20512;-73
2023/11/18 08:02:27;;;;;;;20.80;12.20;;;6.90;99.90;;;;;;5034532;28;20256;-74
2023/11/18 08:05:15;;;;;;;18.65;12.80;;;6.90;99.90;;;;;;5049079;28;20588;-73
2023/11/18 08:08:00;;;;;;;16.53;12.57;;;6.90;99.90;;;;;;5037528;28;20739;-73
2023/11/18 08:10:48;;;;;;;17.35;12.13;;;7.00;99.90;;;;;;5037665;28;20522;-74
2023/11/18 08:13:34;;;;;;;21.10;13.43;;;7.10;99.90;;;;;;5041000;28;20243;-74
2023/11/18 08:16:22;;;;;;;15.87;12.87;;;7.10;99.90;;;;;;5047052;28;20296;-74
2023/11/18 08:19:08;;;;;;;19.23;14.27;;;7.20;99.90;;;;;;5045668;28;20461;-74
2023/11/18 08:21:53;;;;;;;17.80;13.33;;;7.20;99.90;;;;;;5037141;28;20456;-72
2023/11/18 08:24:39;;;;;;;20.80;14.83;;;7.20;99.90;;;;;;5037025;28;20440;-73
2023/11/18 08:27:25;;;;;;;23.30;16.48;;;7.20;99.90;;;;;;5042916;28;20546;-74
2023/11/18 08:30:12;;;;;;;21.97;16.53;;;7.20;99.90;;;;;;5036904;28;20206;-73
2023/11/18 08:32:59;;;;;;;21.13;16.93;;;7.20;99.90;;;;;;5034721;28;20450;-73
2023/11/18 08:35:46;;;;;;;21.20;16.90;;;7.10;99.90;;;;;;5038453;28;20445;-74
2023/11/18 08:38:31;;;;;;;18.88;15.75;;;7.20;99.90;;;;;;5039679;28;20476;-73
2023/11/18 08:41:17;;;;;;;18.73;14.50;;;7.10;99.90;;;;;;5037300;28;20217;-74
2023/11/18 08:44:03;;;;;;;22.65;14.85;;;7.20;99.90;;;;;;5034369;28;20449;-74
2023/11/18 08:46:49;;;;;;;18.03;14.00;;;7.20;99.90;;;;;;5033952;28;20206;-73
2023/11/18 08:49:37;;;;;;;21.13;14.37;;;7.30;99.90;;;;;;5032089;28;20983;-74
2023/11/18 08:52:22;;;;;;;15.90;12.95;;;7.30;99.90;;;;;;5042263;28;20440;-73
2023/11/18 08:55:17;;;;;;;19.60;14.40;;;7.30;99.90;;;;;;5044667;28;20238;-72
2023/11/18 08:58:03;;;;;;;18.15;14.30;;;7.30;99.90;;;;;;5030913;28;20468;-73
2023/11/18 09:00:53;;;;;;;22.15;14.98;;;7.40;99.90;;;;;;5037197;28;20583;-72
2023/11/18 09:03:43;;;;;;;20.25;14.85;;;7.40;99.90;;;;;;5037176;28;20218;-73
2023/11/18 09:06:29;;;;;;;30.27;17.07;;;7.50;99.90;;;;;;5027981;28;20688;-73
2023/11/18 09:09:15;;;;;;;22.57;15.80;;;7.50;99.90;;;;;;5035657;28;20440;-73
2023/11/18 09:12:02;;;;;;;20.13;16.67;;;7.60;99.90;;;;;;5038160;28;21058;-73
2023/11/18 09:14:49;;;;;;;19.60;14.90;;;7.70;99.90;;;;;;5043548;28;20535;-73
2023/11/18 09:17:35;;;;;;;18.50;14.33;;;7.80;99.90;;;;;;5033533;28;20832;-73
2023/11/18 09:20:22;;;;;;;18.93;14.20;;;7.90;99.90;;;;;;5038599;28;20523;-73
2023/11/18 09:23:09;;;;;;;18.27;13.57;;;7.90;99.90;;;;;;5035446;28;20441;-73
2023/11/18 09:25:55;;;;;;;29.70;14.37;;;7.90;99.90;;;;;;5040190;28;20967;-73
2023/11/18 09:28:40;;;;;;;18.23;13.77;;;8.00;99.90;;;;;;5041265;28;20468;-73
2023/11/18 09:31:27;;;;;;;23.00;14.90;;;7.90;99.90;;;;;;5032898;28;22462;-73
2023/11/18 09:34:15;;;;;;;20.83;15.73;;;7.90;99.90;;;;;;5038770;28;20463;-73
2023/11/18 09:37:01;;;;;;;19.17;13.83;;;8.00;99.90;;;;;;5039962;28;20449;-73
2023/11/18 09:39:52;;;;;;;20.40;14.90;;;8.10;99.90;;;;;;5043173;28;21152;-73
2023/11/18 09:42:38;;;;;;;18.17;13.87;;;8.20;99.90;;;;;;5027430;28;20454;-73
2023/11/18 09:45:24;;;;;;;20.40;13.20;;;8.30;99.90;;;;;;5033290;28;20531;-73
2023/11/18 09:48:11;;;;;;;16.57;12.40;;;8.40;99.90;;;;;;5046197;28;20527;-73
2023/11/18 09:51:02;;;;;;;14.03;10.97;;;8.50;99.90;;;;;;5053020;28;20939;-74
2023/11/18 09:53:52;;;;;;;12.53;9.47;;;8.50;99.90;;;;;;5059322;28;20540;-72
2023/11/18 09:56:49;;;;;;;14.20;9.50;;;8.60;99.90;;;;;;5039004;28;20453;-72
2023/11/18 09:59:44;;;;;;;13.20;8.57;;;8.70;99.90;;;;;;5037908;28;20476;-73
2023/11/18 10:02:33;;;;;;;11.93;7.83;;;8.70;99.90;;;;;;5044122;28;20444;-74
2023/11/18 10:05:22;;;;;;;11.50;6.90;;;8.70;99.90;;;;;;5039823;28;20447;-73
2023/11/18 10:08:08;;;;;;;11.23;6.80;;;8.80;99.90;;;;;;5035209;28;20477;-73
2023/11/18 10:11:04;;;;;;;9.87;7.07;;;8.70;99.90;;;;;;5038237;28;20448;-73
2023/11/18 10:13:51;;;;;;;11.63;7.23;;;8.60;99.90;;;;;;5041758;28;20515;-72
2023/11/18 10:16:38;;;;;;;10.33;6.83;;;8.70;99.90;;;;;;5050781;28;20443;-73
2023/11/18 10:19:25;;;;;;;16.33;6.20;;;8.60;99.90;;;;;;5036001;28;20455;-72
2023/11/18 10:22:23;;;;;;;7.00;6.30;;;8.60;99.90;;;;;;5040721;28;20451;-73
2023/11/18 10:25:09;;;;;;;9.90;6.60;;;8.70;99.90;;;;;;5038058;28;20449;-73
2023/11/18 10:27:57;;;;;;;10.50;6.60;;;8.70;99.90;;;;;;5047567;28;20468;-73
2023/11/18 10:30:47;;;;;;;13.67;6.07;;;8.80;99.90;;;;;;5030976;28;20506;-73
2023/11/18 10:33:36;;;;;;;8.70;5.20;;;8.90;99.90;;;;;;5037956;28;20440;-73
2023/11/18 10:36:23;;;;;;;10.60;5.10;;;8.90;99.90;;;;;;5037870;28;20564;-73
2023/11/18 10:39:16;;;;;;;7.23;5.27;;;8.90;99.90;;;;;;5046549;28;20806;-74
2023/11/18 10:42:02;;;;;;;11.70;5.80;;;8.90;99.90;;;;;;5033400;28;20448;-74
2023/11/18 10:44:58;;;;;;;13.33;6.20;;;8.80;99.90;;;;;;5035359;28;20450;-73
2023/11/18 10:47:46;;;;;;;10.70;6.23;;;8.80;99.90;;;;;;5035812;28;20848;-73
2023/11/18 10:50:32;;;;;;;8.70;6.20;;;8.90;99.90;;;;;;5030333;28;20440;-73
2023/11/18 10:53:19;;;;;;;8.27;6.90;;;8.90;99.90;;;;;;5036766;28;20449;-73
2023/11/18 10:56:06;;;;;;;9.70;6.70;;;8.90;99.90;;;;;;5033389;28;20449;-73
2023/11/18 10:58:52;;;;;;;11.03;6.33;;;9.00;99.90;;;;;;5032859;28;20556;-74
2023/11/18 11:01:42;;;;;;;8.90;6.03;;;8.90;99.90;;;;;;5043002;28;20443;-72
2023/11/18 11:04:44;;;;;;;10.40;5.40;;;8.80;99.90;;;;;;5036733;28;20530;-73
2023/11/18 11:07:32;;;;;;;9.63;5.10;;;8.80;99.90;;;;;;5026180;28;20493;-73
2023/11/18 11:10:24;;;;;;;7.70;5.27;;;8.90;99.90;;;;;;5036239;28;20462;-73
2023/11/18 11:13:11;;;;;;;13.07;5.80;;;8.90;99.90;;;;;;5042856;28;20448;-73
2023/11/18 11:15:57;;;;;;;6.77;5.10;;;9.00;99.90;;;;;;5040294;28;20473;-73
2023/11/18 11:18:53;;;;;;;8.70;4.77;;;9.00;99.90;;;;;;5028805;28;20473;-73
2023/11/18 11:21:53;;;;;;;9.07;5.00;;;8.90;99.90;;;;;;5029608;28;20437;-73
2023/11/18 11:24:55;;;;;;;7.70;4.80;;;8.90;99.90;;;;;;5041606;28;20536;-73
2023/11/18 11:27:51;;;;;;;6.00;4.30;;;9.00;99.90;;;;;;5014845;28;20448;-73
2023/11/18 11:30:44;;;;;;;8.17;3.93;;;9.00;99.90;;;;;;5033314;28;20838;-73
2023/11/18 11:33:40;;;;;;;8.43;4.40;;;9.00;99.90;;;;;;5030779;28;20437;-72
2023/11/18 11:36:31;;;;;;;4.40;3.47;;;8.90;99.90;;;;;;5027195;28;21128;-72
2023/11/18 11:39:25;;;;;;;12.97;3.80;;;8.90;99.90;;;;;;5017979;28;20848;-72
2023/11/18 11:42:13;;;;;;;10.57;3.40;;;8.90;99.90;;;;;;5031303;28;20959;-72
2023/11/18 11:45:00;;;;;;;6.20;3.70;;;9.00;99.90;;;;;;5031955;28;20446;-73
2023/11/18 11:47:47;;;;;;;4.70;3.00;;;9.00;99.90;;;;;;5022855;28;20591;-73
2023/11/18 11:50:38;;;;;;;4.00;2.90;;;9.00;99.90;;;;;;5036166;28;20418;-73
2023/11/18 11:53:26;;;;;;;6.70;3.30;;;9.00;99.90;;;;;;5026066;28;20434;-73
2023/11/18 11:56:20;;;;;;;8.33;3.27;;;9.00;99.90;;;;;;5031498;28;20491;-73
2023/11/18 11:59:11;;;;;;;9.10;3.37;;;9.10;99.90;;;;;;5031701;28;20569;-73
2023/11/18 12:01:58;;;;;;;4.50;2.67;;;9.10;99.90;;;;;;5028890;28;20426;-73
2023/11/18 12:04:45;;;;;;;4.87;2.80;;;9.10;99.90;;;;;;5030036;28;20461;-73
2023/11/18 12:07:38;;;;;;;9.43;3.30;;;9.00;99.90;;;;;;5022285;28;20988;-73
2023/11/18 12:10:30;;;;;;;9.63;3.70;;;9.10;99.90;;;;;;5019532;28;20577;-73
2023/11/18 12:13:19;;;;;;;6.17;2.60;;;9.10;99.90;;;;;;5044877;28;20889;-73
2023/11/18 12:16:05;;;;;;;4.87;2.90;;;9.10;99.90;;;;;;5029662;28;20433;-73
2023/11/18 12:19:30;;;;;;;5.07;2.80;;;9.10;99.90;;;;;;5048531;28;20448;-73
2023/11/18 12:22:24;;;;;;;4.30;2.27;;;9.10;99.90;;;;;;5026195;28;20453;-73
2023/11/18 12:25:33;;;;;;;5.03;2.70;;;9.10;99.90;;;;;;5034768;28;20432;-73
2023/11/18 12:28:21;;;;;;;10.17;2.93;;;9.10;99.90;;;;;;5034114;28;20438;-73
2023/11/18 12:31:15;;;;;;;4.50;2.60;;;9.10;99.90;;;;;;5034269;28;20951;-73
2023/11/18 12:34:05;;;;;;;4.70;2.80;;;9.00;99.90;;;;;;5044518;28;20461;-73
2023/11/18 12:37:41;;;;;;;4.63;2.87;;;9.00;99.90;;;;;;5026631;28;20433;-73
2023/11/18 12:40:52;;;;;;;5.83;2.50;;;8.90;99.90;;;;;;4968868;28;21089;-73
2023/11/18 12:43:49;;;;;;;8.50;2.90;;;8.90;99.90;;;;;;5022039;28;20940;-73
2023/11/18 12:46:53;;;;;;;9.50;2.67;;;8.90;99.90;;;;;;5039103;28;20430;-73
2023/11/18 12:49:41;;;;;;;5.33;2.90;;;8.90;99.90;;;;;;5031433;28;20461;-73
2023/11/18 12:52:27;;;;;;;11.93;2.60;;;8.90;99.90;;;;;;5024044;28;20459;-73
2023/11/18 12:55:18;;;;;;;3.53;2.20;;;8.90;99.90;;;;;;5036893;28;20486;-73
2023/11/18 12:58:05;;;;;;;3.47;2.77;;;8.90;99.90;;;;;;5037199;28;20457;-73
2023/11/18 13:00:52;;;;;;;4.30;2.50;;;8.90;99.90;;;;;;5038323;28;20473;-73
2023/11/18 13:03:38;;;;;;;5.50;2.80;;;8.90;99.90;;;;;;5039120;28;20967;-73
2023/11/18 13:06:28;;;;;;;26.30;21.47;;;9.00;99.90;;;;;;5033850;28;20445;-73
2023/11/18 13:09:24;;;;;;;8.77;4.63;;;9.00;99.90;;;;;;5027815;28;20435;-73
2023/11/18 13:12:10;;;;;;;7.13;5.27;;;9.00;99.90;;;;;;5028191;28;20459;-73
2023/11/18 13:14:56;;;;;;;7.17;4.20;;;9.00;99.90;;;;;;5024654;28;20401;-73
2023/11/18 13:17:58;;;;;;;4.03;2.47;;;9.00;99.90;;;;;;5035966;28;20520;-73
2023/11/18 13:20:55;;;;;;;7.43;3.77;;;9.00;99.90;;;;;;5023940;28;20473;-73
2023/11/18 13:23:41;;;;;;;9.73;3.37;;;9.00;99.90;;;;;;5029678;28;20472;-73
2023/11/18 13:26:27;;;;;;;2.87;2.20;;;9.00;99.90;;;;;;5034555;28;20795;-73
2023/11/18 13:29:12;;;;;;;5.50;2.40;;;9.00;99.90;;;;;;5023292;28;20936;-73
2023/11/18 13:32:01;;;;;;;6.53;3.90;;;9.00;99.90;;;;;;5046676;28;20425;-73
2023/11/18 13:34:48;;;;;;;6.87;4.07;;;9.00;99.90;;;;;;5025519;28;20440;-73
2023/11/18 13:37:33;;;;;;;12.23;6.83;;;9.00;99.90;;;;;;5029239;28;20486;-74
2023/11/18 13:40:19;;;;;;;10.63;4.73;;;9.00;99.90;;;;;;5048721;28;20951;-74
2023/11/18 13:43:08;;;;;;;8.10;5.40;;;9.00;99.90;;;;;;5041983;28;20449;-74
2023/11/18 13:45:54;;;;;;;11.13;5.27;;;9.00;99.90;;;;;;5035584;28;20475;-74
2023/11/18 13:48:40;;;;;;;7.73;2.90;;;9.10;99.90;;;;;;5030252;28;20815;-74
2023/11/18 13:51:27;;;;;;;7.77;2.90;;;9.10;99.90;;;;;;5025137;28;20434;-73
2023/11/18 13:54:14;;;;;;;4.80;2.70;;;9.00;99.90;;;;;;5029204;28;20547;-74
2023/11/18 13:57:00;;;;;;;5.00;3.70;;;9.10;99.90;;;;;;5040757;28;20505;-74
2023/11/18 13:59:46;;;;;;;14.50;4.47;;;9.10;99.90;;;;;;5037546;28;20576;-74
2023/11/18 14:02:31;;;;;;;5.87;2.80;;;9.00;99.90;;;;;;5029650;28;20429;-74
2023/11/18 14:05:17;;;;;;;4.67;2.20;;;9.00;99.90;;;;;;5030888;28;20514;-73
2023/11/18 14:08:08;;;;;;;7.53;2.13;;;9.00;99.90;;;;;;5028002;28;20481;-73
2023/11/18 14:10:54;;;;;;;3.03;1.83;;;9.00;99.90;;;;;;5040186;28;20496;-74
2023/11/18 14:13:39;;;;;;;5.47;2.50;;;9.10;99.90;;;;;;5024335;28;20424;-73
2023/11/18 14:16:26;;;;;;;3.93;2.33;;;9.10;99.90;;;;;;5037872;28;20802;-73
2023/11/18 14:19:12;;;;;;;3.80;1.83;;;9.10;99.90;;;;;;5036206;28;20433;-73
2023/11/18 14:21:58;;;;;;;6.53;2.40;;;9.10;99.90;;;;;;5036949;28;20480;-73
2023/11/18 14:24:45;;;;;;;4.43;2.00;;;9.10;99.90;;;;;;5026112;28;20470;-73
2023/11/18 14:27:31;;;;;;;4.27;2.20;;;9.10;99.90;;;;;;5029409;28;20456;-74
2023/11/18 14:30:19;;;;;;;2.70;1.90;;;9.10;99.90;;;;;;5034861;28;20511;-74
2023/11/18 14:33:04;;;;;;;5.30;2.10;;;9.10;99.90;;;;;;5036313;28;20441;-74